الصفحة الرئيسية
METAR-TAF:

METAR-TAF

مطار :

Nan, تايلاند

دائرة عرض: 18-46N, خط طول: 100-46E, ارتفاع: 200 متر

مراقبة الطقس الحالي

تاريخ ووقت الإصدار 9ساعات و 37 دقيقة قبل الساعة 10:00UTC
ريح 5 عقدة من الشرق, الاتجاه يتراوح بين الشمال الشرقي و الجنوب الشرقي
درجة الحرارة 28°درجة مئوية
الرطوبة 79%
ضغط 1009 hPa
الرؤية 10 كم أو أكثر
غيوم قليلة على ارتفاع 2500 قدم
غيوم متفرقة على ارتفاع 4500 قدم

METAR: VTCN 051000Z 10005KT 040V130 9999 FEW025 SCT045 28/24 Q1009 NOSIG

زمن: 02:37 (19:37 UTC)

توقعات

تاريخ ووقت الإصدار 2ساعات و 37 دقيقة قبل الساعة 17:00UTC
التوقعات صالحة من05 الساعة 18 UTC إلى 06 الساعة 18 UTC
ريح 5 عقدة من الجنوب الشرقي
الرؤية 10 كم أو أكثر
غيوم قليلة على ارتفاع 4500 قدم
مؤقت
من 06 الساعة 06 UTC إلى 06 الساعة 12 UTC
غيوم قليلة على ارتفاع 1800 قدم, مزنة ركامية.
غيوم مفككة على ارتفاع 3500 قدم
عاصفة رعدية, مطر خفيف

TAF: VTCN 051700Z 0518/0618 14005KT 9999 FEW045 TEMPO 0606/0612 -TSRA FEW018CB BKN035

أرصاد الطقس والتوقعات من أكثر من 4000 مطار (تقارير الطقس للمطار METAR والتنبؤ بالطقس بالمطارTAF).

المحطات المتاحة هي النقط الصفراء والحمراء على الخريطة.

حرك المؤشر فوق النقطة لمعرفة اسم المحطة.

ثم انقر لمعرفة أرصاد وتوقعات الطقس.

لتغيير الخارطة: اضغط على الأزرار الخضراء مع رمز الصليب الأسود للتكبير. على الزر الأخضر مع شرطة للتصغير، أو على الأسهم الخضراء للخرائط المجاورة.


METAR-TAF: